La Sardane — FO4883 — position and weather

sailwx.info

Track history (hours):
 
Tides and Currents Weather Stations Pressure Air Temp Water Temp Dewpoint Dewpoint Depression Visibility Wind Speed Wind Dir Waves Ship Positions

La Sardane

Last reported at 2017-May-30 01:01 UTC. Time now 2017-May-30 10:53 UTC.
Position N 48°06' W 004°19'.

Length 16 m.

Type: Fishing. MMSI: 227318010.

Date/timePositionNaut miles runAvg speedWind from/ knotsBaromVisibWave heightAir tempDewpointWater temp
2017-May-30 01:01N 48°06' W 004°19'0 0.0
2017-May-30 01:00N 48°06' W 004°19'0 0.0
2017-May-30 00:31N 48°06' W 004°19'0 0.0
2017-May-30 00:00N 48°06' W 004°19'1 1.1
2017-May-29 23:30N 48°06' W 004°20'4 8.5
2017-May-29 23:00N 48°08' W 004°26'4 8.5
2017-May-29 22:30N 48°09' W 004°32'4 8.1
2017-May-29 22:00N 48°10' W 004°38'1 1.9
2017-May-29 21:30N 48°10' W 004°39'1 1.3
2017-May-29 21:00N 48°10' W 004°39'0 0.5
2017-May-29 20:31N 48°10' W 004°38'0 0.7
2017-May-29 20:00N 48°10' W 004°38'1 1.1
2017-May-29 19:30N 48°09' W 004°37'1 1.1
2017-May-29 19:00N 48°10' W 004°38'3 6.4
2017-May-29 18:30N 48°09' W 004°33'4 7.5
2017-May-29 18:00N 48°08' W 004°28'4 7.7
2017-May-29 17:30N 48°08' W 004°22'2 4.8
2017-May-29 17:00N 48°06' W 004°19'0 0.0
2017-May-29 01:36N 48°06' W 004°19'0 0.0
2017-May-29 01:31N 48°06' W 004°19'0 0.1
2017-May-29 01:00N 48°06' W 004°19'0 0.0
2017-May-29 00:31N 48°06' W 004°19'4 7.6
2017-May-29 00:00N 48°07' W 004°25'4 8.6
2017-May-28 23:30N 48°07' W 004°31'3 5.2
2017-May-28 23:01N 48°06' W 004°35'1 1.9
2017-May-28 22:30N 48°06' W 004°37'0 0.7
2017-May-28 22:00N 48°05' W 004°37'1 2.3
2017-May-28 21:30N 48°06' W 004°38'3 6.2
2017-May-28 21:00N 48°09' W 004°41'0 0.6
2017-May-28 20:31N 48°09' W 004°41'2 4.9
2017-May-28 20:01N 48°11' W 004°42'3 6.7
2017-May-28 19:30N 48°13' W 004°46'3 5.6
2017-May-28 19:00N 48°10' W 004°46'4 7.7
2017-May-28 18:30N 48°06' W 004°46'4 7.7
2017-May-28 17:59N 48°02' W 004°46'4 7.3
2017-May-28 17:29N 47°60' W 004°42'8 8.5
2017-May-28 16:33N 47°55' W 004°33'7 8.7
2017-May-28 15:43N 47°50' W 004°25'  
2017-May-24 05:58N 47°46' W 004°20'3 0.7
2017-May-24 01:34N 47°48' W 004°23'8 6.7
2017-May-24 00:25N 47°44' W 004°14'1 2.2
2017-May-23 23:58N 47°44' W 004°15'1 1.0
2017-May-23 22:53N 47°44' W 004°14'0 0.1
2017-May-23 22:16N 47°44' W 004°14'3 6.9
2017-May-23 21:54N 47°45' W 004°10'4 4.4
2017-May-23 20:58N 47°45' W 004°04'2 2.1
2017-May-23 19:53N 47°44' W 004°07'8 8.3
2017-May-23 18:53N 47°45' W 004°19'5 5.0
2017-May-23 17:58N 47°49' W 004°23'0 0.0
2017-May-23 02:56N 47°49' W 004°23'1 2.4
2017-May-23 02:30N 47°49' W 004°24'5 9.6
2017-May-23 02:01N 47°54' W 004°27'5 8.7
2017-May-23 01:28N 47°57' W 004°31'3 7.3
2017-May-23 01:00N 47°58' W 004°36'3 6.7
2017-May-23 00:31N 47°60' W 004°40'0 0.5
2017-May-23 00:00N 47°60' W 004°41'0 0.5
2017-May-22 23:30N 47°59' W 004°41'3 6.4
2017-May-22 23:00N 48°02' W 004°44'3 5.3
2017-May-22 22:31N 48°04' W 004°45'4 7.9
2017-May-22 22:01N 48°08' W 004°45'4 8.5
2017-May-22 21:30N 48°12' W 004°45'2 3.8
2017-May-22 21:00N 48°14' W 004°45'0 0.6
2017-May-22 20:31N 48°14' W 004°45'1 1.1
2017-May-22 20:01N 48°14' W 004°46'0 0.8
2017-May-22 19:30N 48°14' W 004°46'2 3.6
2017-May-22 19:00N 48°12' W 004°47'4 8.4
2017-May-22 18:30N 48°08' W 004°47'4 8.3
2017-May-22 18:00N 48°03' W 004°46'6 8.6
2017-May-22 17:17N 47°58' W 004°41'5 8.1
2017-May-22 16:38N 47°55' W 004°35'10 6.2
2017-May-22 15:00N 47°49' W 004°23'0 0.0
2017-May-21 22:43N 47°49' W 004°23'1 3.0
2017-May-21 22:31N 47°49' W 004°24'3 4.9
2017-May-21 21:58N 47°51' W 004°22'4 7.9
2017-May-21 21:30N 47°54' W 004°24'3 6.8
2017-May-21 21:00N 47°53' W 004°29'3 5.0
2017-May-21 20:30N 47°55' W 004°32'4 7.3
2017-May-21 20:00N 47°57' W 004°36'0 0.7
2017-May-21 19:29N 47°57' W 004°37'6 7.9
2017-May-21 18:43N 47°52' W 004°30'2 8.4
2017-May-21 18:28N 47°51' W 004°28'4 8.3
2017-May-21 17:58N 47°49' W 004°23'  
Track history (hours):
 
Tides and Currents Weather Stations Pressure Air Temp Water Temp Dewpoint Dewpoint Depression Visibility Wind Speed Wind Dir Waves Ship Positions

La Sardane

Last reported at 2017-May-30 01:01 UTC. Time now 2017-May-30 10:53 UTC.
Position N 48°06' W 004°19'.

Length 16 m.

Type: Fishing. MMSI: 227318010.

Date/timePositionNaut miles runAvg speedWind from/ knotsBaromVisibWave heightAir tempDewpointWater temp
2017-May-30 01:01N 48°06' W 004°19'0 0.0
2017-May-30 01:00N 48°06' W 004°19'0 0.0
2017-May-30 00:31N 48°06' W 004°19'0 0.0
2017-May-30 00:00N 48°06' W 004°19'1 1.1
2017-May-29 23:30N 48°06' W 004°20'4 8.5
2017-May-29 23:00N 48°08' W 004°26'4 8.5
2017-May-29 22:30N 48°09' W 004°32'4 8.1
2017-May-29 22:00N 48°10' W 004°38'1 1.9
2017-May-29 21:30N 48°10' W 004°39'1 1.3
2017-May-29 21:00N 48°10' W 004°39'0 0.5
2017-May-29 20:31N 48°10' W 004°38'0 0.7
2017-May-29 20:00N 48°10' W 004°38'1 1.1
2017-May-29 19:30N 48°09' W 004°37'1 1.1
2017-May-29 19:00N 48°10' W 004°38'3 6.4
2017-May-29 18:30N 48°09' W 004°33'4 7.5
2017-May-29 18:00N 48°08' W 004°28'4 7.7
2017-May-29 17:30N 48°08' W 004°22'2 4.8
2017-May-29 17:00N 48°06' W 004°19'0 0.0
2017-May-29 01:36N 48°06' W 004°19'0 0.0
2017-May-29 01:31N 48°06' W 004°19'0 0.1
2017-May-29 01:00N 48°06' W 004°19'0 0.0
2017-May-29 00:31N 48°06' W 004°19'4 7.6
2017-May-29 00:00N 48°07' W 004°25'4 8.6
2017-May-28 23:30N 48°07' W 004°31'3 5.2
2017-May-28 23:01N 48°06' W 004°35'1 1.9
2017-May-28 22:30N 48°06' W 004°37'0 0.7
2017-May-28 22:00N 48°05' W 004°37'1 2.3
2017-May-28 21:30N 48°06' W 004°38'3 6.2
2017-May-28 21:00N 48°09' W 004°41'0 0.6
2017-May-28 20:31N 48°09' W 004°41'2 4.9
2017-May-28 20:01N 48°11' W 004°42'3 6.7
2017-May-28 19:30N 48°13' W 004°46'3 5.6
2017-May-28 19:00N 48°10' W 004°46'4 7.7
2017-May-28 18:30N 48°06' W 004°46'4 7.7
2017-May-28 17:59N 48°02' W 004°46'4 7.3
2017-May-28 17:29N 47°60' W 004°42'8 8.5
2017-May-28 16:33N 47°55' W 004°33'7 8.7
2017-May-28 15:43N 47°50' W 004°25'  
2017-May-24 05:58N 47°46' W 004°20'3 0.7
2017-May-24 01:34N 47°48' W 004°23'8 6.7
2017-May-24 00:25N 47°44' W 004°14'1 2.2
2017-May-23 23:58N 47°44' W 004°15'1 1.0
2017-May-23 22:53N 47°44' W 004°14'0 0.1
2017-May-23 22:16N 47°44' W 004°14'3 6.9
2017-May-23 21:54N 47°45' W 004°10'4 4.4
2017-May-23 20:58N 47°45' W 004°04'2 2.1
2017-May-23 19:53N 47°44' W 004°07'8 8.3
2017-May-23 18:53N 47°45' W 004°19'5 5.0
2017-May-23 17:58N 47°49' W 004°23'0 0.0
2017-May-23 02:56N 47°49' W 004°23'1 2.4
2017-May-23 02:30N 47°49' W 004°24'5 9.6
2017-May-23 02:01N 47°54' W 004°27'5 8.7
2017-May-23 01:28N 47°57' W 004°31'3 7.3
2017-May-23 01:00N 47°58' W 004°36'3 6.7
2017-May-23 00:31N 47°60' W 004°40'0 0.5
2017-May-23 00:00N 47°60' W 004°41'0 0.5
2017-May-22 23:30N 47°59' W 004°41'3 6.4
2017-May-22 23:00N 48°02' W 004°44'3 5.3
2017-May-22 22:31N 48°04' W 004°45'4 7.9
2017-May-22 22:01N 48°08' W 004°45'4 8.5
2017-May-22 21:30N 48°12' W 004°45'2 3.8
2017-May-22 21:00N 48°14' W 004°45'0 0.6
2017-May-22 20:31N 48°14' W 004°45'1 1.1
2017-May-22 20:01N 48°14' W 004°46'0 0.8
2017-May-22 19:30N 48°14' W 004°46'2 3.6
2017-May-22 19:00N 48°12' W 004°47'4 8.4
2017-May-22 18:30N 48°08' W 004°47'4 8.3
2017-May-22 18:00N 48°03' W 004°46'6 8.6
2017-May-22 17:17N 47°58' W 004°41'5 8.1
2017-May-22 16:38N 47°55' W 004°35'10 6.2
2017-May-22 15:00N 47°49' W 004°23'0 0.0
2017-May-21 22:43N 47°49' W 004°23'1 3.0
2017-May-21 22:31N 47°49' W 004°24'3 4.9
2017-May-21 21:58N 47°51' W 004°22'4 7.9
2017-May-21 21:30N 47°54' W 004°24'3 6.8
2017-May-21 21:00N 47°53' W 004°29'3 5.0
2017-May-21 20:30N 47°55' W 004°32'4 7.3
2017-May-21 20:00N 47°57' W 004°36'0 0.7
2017-May-21 19:29N 47°57' W 004°37'6 7.9
2017-May-21 18:43N 47°52' W 004°30'2 8.4
2017-May-21 18:28N 47°51' W 004°28'4 8.3
2017-May-21 17:58N 47°49' W 004°23'  

Dump ship's entire track history